Time;durP1;ratioP1;P1;durP2;ratioP2;P2;SDS_P1;SDS_P2;PMS_P1;PMS_P2;Temp;Humidity;BMP_temperature;BMP_pressure;BME280_temperature;BME280_humidity;BME280_pressure;Samples;Min_cycle;Max_cycle;Signal;HPM_P1;HPM_P2
2023/07/24 00:02:23;;;;;;;;;;;21.50;61.30;;;;;;5000594;28;916;-69
2023/07/24 00:04:49;;;;;;;;;;;21.50;61.30;;;;;;5001066;28;1102;-69
2023/07/24 00:07:14;;;;;;;;;;;21.50;61.30;;;;;;4999158;28;1906;-69
2023/07/24 00:09:40;;;;;;;;;;;21.50;61.30;;;;;;4998295;28;852;-69
2023/07/24 00:12:05;;;;;;;;;;;21.50;61.30;;;;;;5001838;28;1714;-69
2023/07/24 00:14:31;;;;;;;;;;;21.50;61.30;;;;;;5000006;28;1074;-70
2023/07/24 00:16:56;;;;;;;;;;;21.50;61.30;;;;;;5001428;28;858;-69
2023/07/24 00:19:22;;;;;;;;;;;21.50;61.40;;;;;;5000944;28;1313;-68
2023/07/24 00:21:47;;;;;;;;;;;21.50;61.40;;;;;;5001841;28;1253;-71
2023/07/24 00:24:13;;;;;;;;;;;21.50;61.40;;;;;;5003084;28;831;-70
2023/07/24 00:26:38;;;;;;;;;;;21.50;61.40;;;;;;5012403;28;1967;-70
2023/07/24 00:29:04;;;;;;;;;;;21.50;61.40;;;;;;5001777;28;991;-71
2023/07/24 00:31:29;;;;;;;;;;;21.50;61.40;;;;;;5001070;28;1241;-69
2023/07/24 00:33:54;;;;;;;;;;;21.50;61.50;;;;;;5011030;28;798;-70
2023/07/24 00:36:20;;;;;;;;;;;21.50;61.50;;;;;;5004400;28;888;-70
2023/07/24 00:38:46;;;;;;;;;;;21.50;61.50;;;;;;4994128;28;975;-70
2023/07/24 00:41:11;;;;;;;;;;;21.50;61.50;;;;;;5001128;28;1177;-70
2023/07/24 00:43:37;;;;;;;;;;;21.50;61.50;;;;;;5002022;28;767;-70
2023/07/24 00:46:02;;;;;;;;;;;21.50;61.50;;;;;;4996568;28;2141;-70
2023/07/24 00:48:27;;;;;;;;;;;21.50;61.50;;;;;;5005301;28;753;-70
2023/07/24 00:50:53;;;;;;;;;;;21.50;61.50;;;;;;4997626;28;1273;-70
2023/07/24 00:53:19;;;;;;;;;;;21.50;61.50;;;;;;5003363;28;808;-70
2023/07/24 00:55:44;;;;;;;;;;;21.50;61.50;;;;;;5002768;28;804;-69
2023/07/24 00:58:12;;;;;;;;;;;21.50;61.50;;;;;;4998997;28;869;-69
2023/07/24 01:00:39;;;;;;;;;;;21.50;61.50;;;;;;4985505;28;1257;-69
2023/07/24 01:03:05;;;;;;;;;;;21.50;61.60;;;;;;4983971;28;888;-70
2023/07/24 01:05:30;;;;;;;;;;;21.50;61.60;;;;;;4997689;28;1895;-70
2023/07/24 01:07:56;;;;;;;;;;;21.50;61.60;;;;;;5000172;28;1054;-70
2023/07/24 01:10:22;;;;;;;;;;;21.50;61.60;;;;;;5000220;28;1283;-70
2023/07/24 01:13:07;;;;;;;;;;;21.50;61.60;;;;;;4998214;28;840;-70
2023/07/24 01:15:38;;;;;;;;;;;21.50;61.60;;;;;;4983767;28;1554;-70
2023/07/24 01:18:05;;;;;;;;;;;21.40;61.70;;;;;;4983111;28;968;-70
2023/07/24 01:20:31;;;;;;;;;;;21.50;61.70;;;;;;4985538;28;1493;-69
2023/07/24 01:23:15;;;;;;;;;;;21.50;61.70;;;;;;4998735;28;835;-69
2023/07/24 01:26:06;;;;;;;;;;;21.50;61.70;;;;;;4996141;28;1915;-70
2023/07/24 01:28:32;;;;;;;;;;;21.50;61.70;;;;;;4998959;28;1355;-71
2023/07/24 01:30:57;;;;;;;;;;;21.40;61.70;;;;;;4998346;28;1268;-70
2023/07/24 01:33:23;;;;;;;;;;;21.50;61.70;;;;;;4996188;28;935;-71
2023/07/24 01:35:57;;;;;;;;;;;21.50;61.80;;;;;;4999269;28;1274;-71
2023/07/24 01:38:24;;;;;;;;;;;21.40;61.80;;;;;;4998098;28;845;-70
2023/07/24 01:40:49;;;;;;;;;;;21.50;61.80;;;;;;4999594;28;1383;-68
2023/07/24 01:43:15;;;;;;;;;;;21.50;61.80;;;;;;4983512;28;995;-69
2023/07/24 01:45:40;;;;;;;;;;;21.50;61.80;;;;;;4999669;28;1973;-69
2023/07/24 01:48:06;;;;;;;;;;;21.50;61.80;;;;;;4994027;28;866;-69
2023/07/24 01:50:31;;;;;;;;;;;21.50;61.80;;;;;;4997689;28;1289;-70
2023/07/24 01:52:57;;;;;;;;;;;21.50;61.90;;;;;;4997199;28;816;-70
2023/07/24 01:55:22;;;;;;;;;;;21.50;61.80;;;;;;4994589;28;959;-69
2023/07/24 01:57:48;;;;;;;;;;;21.50;61.80;;;;;;4997760;28;932;-70
2023/07/24 02:00:13;;;;;;;;;;;21.50;61.90;;;;;;4998908;28;1260;-70
2023/07/24 02:02:39;;;;;;;;;;;21.50;61.90;;;;;;4995773;28;850;-70
2023/07/24 02:05:04;;;;;;;;;;;21.50;62.00;;;;;;4999778;28;1942;-70
2023/07/24 02:07:30;;;;;;;;;;;21.40;61.90;;;;;;4995633;28;1054;-69
2023/07/24 02:09:55;;;;;;;;;;;21.50;62.00;;;;;;4999622;28;1377;-70
2023/07/24 02:12:21;;;;;;;;;;;21.40;61.90;;;;;;4999742;28;896;-70
2023/07/24 02:14:49;;;;;;;;;;;21.40;61.90;;;;;;5000326;28;1015;-70
2023/07/24 02:17:18;;;;;;;;;;;21.40;62.00;;;;;;4998164;28;864;-70
2023/07/24 02:19:43;;;;;;;;;;;21.40;62.00;;;;;;4983110;28;1367;-70
2023/07/24 02:22:09;;;;;;;;;;;21.50;62.00;;;;;;4985070;28;1262;-70
2023/07/24 02:24:34;;;;;;;;;;;21.50;62.00;;;;;;4997718;28;1057;-70
2023/07/24 02:27:00;;;;;;;;;;;21.40;62.00;;;;;;4996744;28;1902;-70
2023/07/24 02:29:25;;;;;;;;;;;21.40;62.00;;;;;;4991536;28;879;-69
2023/07/24 02:31:51;;;;;;;;;;;21.50;62.00;;;;;;4999918;28;1252;-69
2023/07/24 02:34:16;;;;;;;;;;;21.40;62.80;;;;;;5002100;28;936;-69
2023/07/24 02:36:42;;;;;;;;;;;21.50;62.10;;;;;;5004821;28;939;-69
2023/07/24 02:39:07;;;;;;;;;;;21.40;62.00;;;;;;4975988;28;1306;-68
2023/07/24 02:41:33;;;;;;;;;;;21.50;62.10;;;;;;4996134;28;1358;-69
2023/07/24 02:43:58;;;;;;;;;;;21.50;62.20;;;;;;5003092;28;935;-68
2023/07/24 02:46:24;;;;;;;;;;;21.40;62.10;;;;;;5005529;28;1910;-69
2023/07/24 02:48:50;;;;;;;;;;;21.50;62.20;;;;;;5001138;28;887;-68
2023/07/24 02:51:16;;;;;;;;;;;21.40;62.10;;;;;;4997608;28;1227;-70
2023/07/24 02:53:41;;;;;;;;;;;21.40;62.10;;;;;;5000558;28;861;-70
2023/07/24 02:56:06;;;;;;;;;;;21.40;62.10;;;;;;4990858;28;1200;-70
2023/07/24 02:58:32;;;;;;;;;;;21.50;62.20;;;;;;5001742;28;876;-70
2023/07/24 03:01:04;;;;;;;;;;;21.50;62.20;;;;;;5001040;28;1280;-71
2023/07/24 03:03:30;;;;;;;;;;;21.50;62.20;;;;;;5002954;28;1525;-70
2023/07/24 03:05:55;;;;;;;;;;;21.40;62.20;;;;;;5000381;28;1902;-70
2023/07/24 03:08:21;;;;;;;;;;;21.40;62.20;;;;;;5002536;28;954;-69
2023/07/24 03:10:46;;;;;;;;;;;21.40;62.20;;;;;;5005973;28;1399;-70
2023/07/24 03:13:11;;;;;;;;;;;21.40;62.20;;;;;;5001927;28;871;-70
2023/07/24 03:15:37;;;;;;;;;;;21.50;62.30;;;;;;5001673;28;899;-69
2023/07/24 03:18:02;;;;;;;;;;;21.40;62.30;;;;;;5003860;28;911;-69
2023/07/24 03:20:28;;;;;;;;;;;21.40;62.20;;;;;;4999312;28;1305;-69
2023/07/24 03:22:53;;;;;;;;;;;21.50;62.30;;;;;;4997194;28;873;-69
2023/07/24 03:25:19;;;;;;;;;;;21.40;62.30;;;;;;4999340;28;1968;-70
2023/07/24 03:27:44;;;;;;;;;;;21.40;62.30;;;;;;5001220;28;1402;-69
2023/07/24 03:30:10;;;;;;;;;;;21.40;62.30;;;;;;5001977;28;1260;-69
2023/07/24 03:32:38;;;;;;;;;;;21.40;62.30;;;;;;5002259;28;839;-69
2023/07/24 03:35:04;;;;;;;;;;;21.40;62.40;;;;;;5002501;28;1333;-69
2023/07/24 03:37:30;;;;;;;;;;;21.40;62.30;;;;;;4987473;28;866;-69
2023/07/24 03:39:56;;;;;;;;;;;21.40;62.30;;;;;;4998886;28;1339;-69
2023/07/24 03:42:28;;;;;;;;;;;21.40;62.30;;;;;;5000204;28;924;-69
2023/07/24 03:44:53;;;;;;;;;;;21.40;62.40;;;;;;4999296;28;845;-69
2023/07/24 03:47:19;;;;;;;;;;;21.40;62.40;;;;;;5003036;28;1994;-69
2023/07/24 03:49:44;;;;;;;;;;;21.40;62.40;;;;;;5001521;28;1322;-69
2023/07/24 03:52:09;;;;;;;;;;;21.40;62.40;;;;;;5001035;28;1238;-69
2023/07/24 03:54:35;;;;;;;;;;;21.40;62.40;;;;;;4990779;28;923;-70
2023/07/24 03:57:00;;;;;;;;;;;21.40;62.40;;;;;;5000294;28;880;-69
2023/07/24 03:59:26;;;;;;;;;;;21.40;63.20;;;;;;5000316;28;1069;-71
2023/07/24 04:01:51;;;;;;;;;;;21.50;62.50;;;;;;4999437;28;1241;-69
2023/07/24 04:04:17;;;;;;;;;;;21.40;62.40;;;;;;5001489;28;962;-69
2023/07/24 04:06:42;;;;;;;;;;;21.40;62.40;;;;;;4984240;28;1899;-69
2023/07/24 04:09:08;;;;;;;;;;;21.40;62.40;;;;;;5006762;28;882;-68
2023/07/24 04:11:33;;;;;;;;;;;21.40;62.50;;;;;;5008763;28;1267;-68
2023/07/24 04:13:58;;;;;;;;;;;21.40;62.50;;;;;;4993707;28;1324;-69
2023/07/24 04:16:24;;;;;;;;;;;21.50;62.60;;;;;;5005697;28;940;-69
2023/07/24 04:18:49;;;;;;;;;;;21.40;62.50;;;;;;5005085;28;1337;-68
2023/07/24 04:21:15;;;;;;;;;;;21.40;62.50;;;;;;5004597;28;1323;-69
2023/07/24 04:23:40;;;;;;;;;;;21.40;62.50;;;;;;4999097;28;1003;-68
2023/07/24 04:26:06;;;;;;;;;;;21.40;62.50;;;;;;5001446;28;1911;-68
2023/07/24 04:28:31;;;;;;;;;;;21.40;62.50;;;;;;5001316;28;1257;-69
2023/07/24 04:30:59;;;;;;;;;;;21.40;62.50;;;;;;4998067;28;1225;-69
2023/07/24 04:33:27;;;;;;;;;;;21.40;62.60;;;;;;5002325;28;1151;-69
2023/07/24 04:35:53;;;;;;;;;;;21.40;62.60;;;;;;4998385;28;859;-68
2023/07/24 04:38:19;;;;;;;;;;;21.40;62.60;;;;;;5000889;28;1085;-69
2023/07/24 04:40:45;;;;;;;;;;;21.40;62.60;;;;;;5000388;28;1295;-71
2023/07/24 04:43:10;;;;;;;;;;;21.40;62.60;;;;;;5000590;28;840;-71
2023/07/24 04:45:36;;;;;;;;;;;21.40;62.70;;;;;;5000599;28;1957;-69
2023/07/24 04:48:01;;;;;;;;;;;21.40;62.60;;;;;;5000935;28;873;-70
2023/07/24 04:50:27;;;;;;;;;;;21.40;62.60;;;;;;5000744;28;1277;-70
2023/07/24 04:52:52;;;;;;;;;;;21.40;62.70;;;;;;5000313;28;912;-69
2023/07/24 04:55:17;;;;;;;;;;;21.40;62.70;;;;;;5000527;28;960;-69
2023/07/24 04:57:43;;;;;;;;;;;21.40;62.70;;;;;;4999707;28;956;-69
2023/07/24 05:00:09;;;;;;;;;;;21.40;62.70;;;;;;4995541;28;1279;-69
2023/07/24 05:02:34;;;;;;;;;;;21.40;62.70;;;;;;5001477;28;924;-70
2023/07/24 05:05:00;;;;;;;;;;;21.40;62.70;;;;;;4999476;28;895;-68
2023/07/24 05:07:25;;;;;;;;;;;21.40;62.70;;;;;;4995894;28;1922;-68
2023/07/24 05:09:51;;;;;;;;;;;21.40;62.70;;;;;;4998403;28;1268;-69
2023/07/24 05:12:16;;;;;;;;;;;21.40;62.70;;;;;;5000230;28;1209;-69
2023/07/24 05:14:42;;;;;;;;;;;21.40;62.70;;;;;;5000557;28;887;-69
2023/07/24 05:17:07;;;;;;;;;;;21.40;62.70;;;;;;5001190;28;892;-70
2023/07/24 05:19:33;;;;;;;;;;;21.40;62.70;;;;;;5001735;28;866;-68
2023/07/24 05:21:59;;;;;;;;;;;21.40;62.80;;;;;;5003390;28;1342;-68
2023/07/24 05:24:24;;;;;;;;;;;21.40;62.80;;;;;;4999879;28;832;-68
2023/07/24 05:26:50;;;;;;;;;;;21.40;62.80;;;;;;4996014;28;1971;-68
2023/07/24 05:29:15;;;;;;;;;;;21.40;62.80;;;;;;5000127;28;1515;-68
2023/07/24 05:31:40;;;;;;;;;;;21.40;62.80;;;;;;4999931;28;1289;-69
2023/07/24 05:34:06;;;;;;;;;;;21.40;62.80;;;;;;4999822;28;870;-69
2023/07/24 05:36:31;;;;;;;;;;;21.40;62.80;;;;;;4998488;28;1351;-69
2023/07/24 05:38:57;;;;;;;;;;;21.40;62.80;;;;;;4997325;28;959;-70
2023/07/24 05:41:23;;;;;;;;;;;21.40;62.80;;;;;;4998841;28;1303;-70
2023/07/24 05:43:48;;;;;;;;;;;21.40;62.90;;;;;;4996610;28;867;-69
2023/07/24 05:46:14;;;;;;;;;;;21.40;62.80;;;;;;4998109;28;1972;-70
2023/07/24 05:48:39;;;;;;;;;;;21.40;62.90;;;;;;4995516;28;920;-68
2023/07/24 05:51:05;;;;;;;;;;;21.40;62.90;;;;;;5004109;28;1272;-69
2023/07/24 05:53:30;;;;;;;;;;;21.40;62.90;;;;;;4995637;28;1023;-70
2023/07/24 05:55:59;;;;;;;;;;;21.40;62.90;;;;;;5003752;28;888;-69
2023/07/24 05:58:25;;;;;;;;;;;21.40;62.90;;;;;;4993850;28;840;-69
2023/07/24 06:00:50;;;;;;;;;;;21.40;62.90;;;;;;4996803;28;1661;-69
2023/07/24 06:03:16;;;;;;;;;;;21.40;62.90;;;;;;4997651;28;816;-69
2023/07/24 06:05:41;;;;;;;;;;;21.40;62.90;;;;;;4999783;28;1966;-69
2023/07/24 06:08:08;;;;;;;;;;;21.40;62.90;;;;;;5000802;28;809;-69
2023/07/24 06:10:34;;;;;;;;;;;21.40;63.60;;;;;;5002449;28;1215;-69
2023/07/24 06:12:59;;;;;;;;;;;21.40;62.90;;;;;;5009193;28;848;-69
2023/07/24 06:15:25;;;;;;;;;;;21.40;62.90;;;;;;5003880;28;802;-69
2023/07/24 06:17:50;;;;;;;;;;;21.40;62.90;;;;;;5002874;28;948;-68
2023/07/24 06:20:16;;;;;;;;;;;21.40;62.70;;;;;;5004238;28;1308;-69
2023/07/24 06:22:41;;;;;;;;;;;21.40;62.90;;;;;;5001138;28;1323;-70
2023/07/24 06:25:07;;;;;;;;;;;21.40;63.50;;;;;;5004855;28;924;-68
2023/07/24 06:27:32;;;;;;;;;;;21.40;64.30;;;;;;5004315;28;1894;-68
2023/07/24 06:29:58;;;;;;;;;;;21.50;64.40;;;;;;5001116;28;1436;-68
2023/07/24 06:32:23;;;;;;;;;;;21.50;64.50;;;;;;5003344;28;874;-68
2023/07/24 06:34:49;;;;;;;;;;;21.50;64.20;;;;;;5001095;28;2411;-69
2023/07/24 06:37:14;;;;;;;;;;;21.50;64.10;;;;;;4991988;28;1909;-71
2023/07/24 06:39:40;;;;;;;;;;;21.50;64.50;;;;;;5001225;28;1406;-68
2023/07/24 06:42:05;;;;;;;;;;;21.50;64.60;;;;;;5001674;28;1304;-67
2023/07/24 06:44:30;;;;;;;;;;;21.50;64.70;;;;;;5000627;28;824;-68
2023/07/24 06:46:56;;;;;;;;;;;21.60;64.80;;;;;;5003159;28;1910;-67
2023/07/24 06:49:21;;;;;;;;;;;21.60;65.10;;;;;;4999218;28;860;-69
2023/07/24 06:51:47;;;;;;;;;;;21.60;64.60;;;;;;5004382;28;1634;-70
2023/07/24 06:54:12;;;;;;;;;;;21.60;65.00;;;;;;4999458;28;870;-70
2023/07/24 06:56:38;;;;;;;;;;;21.60;64.70;;;;;;4999301;28;891;-68
2023/07/24 06:59:03;;;;;;;;;;;21.60;64.70;;;;;;4991424;28;1290;-68
2023/07/24 07:01:29;;;;;;;;;;;21.60;65.00;;;;;;5001808;28;1319;-70
2023/07/24 07:03:54;;;;;;;;;;;21.60;65.10;;;;;;5001466;28;872;-68
2023/07/24 07:06:19;;;;;;;;;;;21.70;65.00;;;;;;4999180;28;1894;-69
2023/07/24 07:08:45;;;;;;;;;;;21.70;65.20;;;;;;4998526;28;800;-70
2023/07/24 07:11:10;;;;;;;;;;;21.70;65.10;;;;;;4995177;28;1184;-69
2023/07/24 07:13:36;;;;;;;;;;;21.70;64.90;;;;;;4997409;28;1339;-67
2023/07/24 07:16:01;;;;;;;;;;;21.70;64.70;;;;;;4993527;28;1316;-70
2023/07/24 07:18:27;;;;;;;;;;;21.70;64.90;;;;;;4986841;28;1358;-69
2023/07/24 07:20:53;;;;;;;;;;;21.70;64.80;;;;;;4995005;28;1176;-69
2023/07/24 07:23:18;;;;;;;;;;;21.70;64.40;;;;;;4977718;28;848;-69
2023/07/24 07:25:45;;;;;;;;;;;21.70;64.70;;;;;;4998475;28;1902;-68
2023/07/24 07:28:14;;;;;;;;;;;21.70;64.80;;;;;;5003917;28;1308;-68
2023/07/24 07:30:39;;;;;;;;;;;21.70;64.60;;;;;;5007047;28;1406;-68
2023/07/24 07:33:08;;;;;;;;;;;21.70;64.30;;;;;;5003134;28;904;-69
2023/07/24 07:35:33;;;;;;;;;;;21.70;65.00;;;;;;5001404;28;998;-68
2023/07/24 07:37:59;;;;;;;;;;;21.80;64.30;;;;;;4997448;28;1169;-68
2023/07/24 07:40:26;;;;;;;;;;;21.70;64.30;;;;;;4962790;28;1097837;-69
2023/07/24 07:42:52;;;;;;;;;;;21.80;64.20;;;;;;5006890;28;894;-69
2023/07/24 07:45:18;;;;;;;;;;;21.80;64.10;;;;;;4999460;28;1903;-69
2023/07/24 07:47:43;;;;;;;;;;;21.80;64.10;;;;;;4997676;28;866;-71
2023/07/24 07:50:09;;;;;;;;;;;21.80;64.10;;;;;;5001822;28;1242;-70
2023/07/24 07:52:34;;;;;;;;;;;21.80;64.10;;;;;;5002202;28;848;-69
2023/07/24 07:55:00;;;;;;;;;;;21.80;64.40;;;;;;4990241;28;864;-69
2023/07/24 07:57:25;;;;;;;;;;;21.80;64.40;;;;;;5001106;28;1955;-69
2023/07/24 07:59:51;;;;;;;;;;;21.80;64.30;;;;;;5000351;28;1418;-68
2023/07/24 08:02:16;;;;;;;;;;;21.90;64.30;;;;;;5000092;28;1357;-69
2023/07/24 08:04:42;;;;;;;;;;;21.90;64.30;;;;;;4999775;28;1430;-68
2023/07/24 08:07:07;;;;;;;;;;;21.90;64.20;;;;;;4995962;28;1906;-67
2023/07/24 08:09:33;;;;;;;;;;;21.90;64.10;;;;;;5000058;28;1031;-68
2023/07/24 08:11:59;;;;;;;;;;;21.90;64.20;;;;;;4996575;28;1378;-68
2023/07/24 08:14:24;;;;;;;;;;;21.90;64.10;;;;;;5002512;28;848;-69
2023/07/24 08:16:50;;;;;;;;;;;21.90;63.80;;;;;;5014860;28;1023;-68
2023/07/24 08:19:15;;;;;;;;;;;21.90;64.40;;;;;;4988981;28;1531;-68
2023/07/24 08:21:41;;;;;;;;;;;21.90;63.70;;;;;;4991904;28;1328;-68
2023/07/24 08:24:06;;;;;;;;;;;21.90;64.00;;;;;;4999661;28;928;-68
2023/07/24 08:26:32;;;;;;;;;;;22.00;64.00;;;;;;4984350;28;2139;-69
2023/07/24 08:28:58;;;;;;;;;;;22.00;63.90;;;;;;4997158;28;2005;-68
2023/07/24 08:31:23;;;;;;;;;;;22.00;63.90;;;;;;4983262;28;1726;-68
2023/07/24 08:33:48;;;;;;;;;;;22.00;64.00;;;;;;4996627;28;1628;-68
2023/07/24 08:36:14;;;;;;;;;;;22.00;64.00;;;;;;5000371;28;1953;-68
2023/07/24 08:38:40;;;;;;;;;;;22.00;64.10;;;;;;4985299;28;1369;-69
2023/07/24 08:41:09;;;;;;;;;;;22.00;63.80;;;;;;4998910;28;1606;-68
2023/07/24 08:43:35;;;;;;;;;;;22.00;63.50;;;;;;5002259;28;1246;-70
2023/07/24 08:46:01;;;;;;;;;;;22.00;63.50;;;;;;4999493;28;1915;-67
2023/07/24 08:48:27;;;;;;;;;;;22.00;63.50;;;;;;4999261;28;1169;-68
2023/07/24 08:50:52;;;;;;;;;;;22.00;63.60;;;;;;4996922;28;1347;-67
2023/07/24 08:53:18;;;;;;;;;;;22.00;63.50;;;;;;4997287;28;1310;-67
2023/07/24 08:55:44;;;;;;;;;;;22.10;63.40;;;;;;4984920;28;1780;-67
2023/07/24 08:58:09;;;;;;;;;;;22.10;63.40;;;;;;4999413;28;1429;-68
2023/07/24 09:00:35;;;;;;;;;;;22.10;63.30;;;;;;5002012;28;1337;-66
2023/07/24 09:03:00;;;;;;;;;;;22.10;63.10;;;;;;5000239;28;1485;-68
2023/07/24 09:05:26;;;;;;;;;;;22.10;63.30;;;;;;5005793;28;1890;-69
2023/07/24 09:07:52;;;;;;;;;;;22.10;63.30;;;;;;4999929;28;903;-67
2023/07/24 09:10:23;;;;;;;;;;;22.20;63.60;;;;;;5006854;28;1289;-68
2023/07/24 09:12:49;;;;;;;;;;;22.20;63.70;;;;;;5000637;28;1238;-67
2023/07/24 09:15:14;;;;;;;;;;;22.20;63.70;;;;;;5002549;28;1321;-69
2023/07/24 09:17:52;;;;;;;;;;;22.20;63.90;;;;;;5006639;28;808;-68
2023/07/24 09:20:18;;;;;;;;;;;22.20;63.90;;;;;;4987979;28;1244;-69
2023/07/24 09:22:52;;;;;;;;;;;22.20;63.80;;;;;;4999900;28;982;-69
2023/07/24 09:25:18;;;;;;;;;;;22.20;64.30;;;;;;4990711;28;1499;-69
2023/07/24 09:27:43;;;;;;;;;;;22.20;63.60;;;;;;4985649;28;1925;-69
2023/07/24 09:30:13;;;;;;;;;;;22.20;63.20;;;;;;5002287;28;1247;-68
2023/07/24 09:32:38;;;;;;;;;;;22.20;63.00;;;;;;5000725;28;1444;-67
2023/07/24 09:35:04;;;;;;;;;;;22.30;62.90;;;;;;4987866;28;1417;-69
2023/07/24 09:37:33;;;;;;;;;;;22.20;62.80;;;;;;5002688;28;1409;-67
2023/07/24 09:39:59;;;;;;;;;;;22.30;62.70;;;;;;5001967;28;1531;-70
2023/07/24 09:42:31;;;;;;;;;;;22.30;62.30;;;;;;4999819;28;1366;-69
2023/07/24 09:44:56;;;;;;;;;;;22.30;62.30;;;;;;4990176;28;1451;-68
2023/07/24 09:47:22;;;;;;;;;;;22.30;62.50;;;;;;5002320;28;1973;-69
2023/07/24 09:49:47;;;;;;;;;;;22.30;62.60;;;;;;5001142;28;1302;-69
2023/07/24 09:52:13;;;;;;;;;;;22.30;62.60;;;;;;4998811;28;1593;-69
2023/07/24 09:54:45;;;;;;;;;;;22.30;62.60;;;;;;4985839;28;1367;-70
2023/07/24 09:57:10;;;;;;;;;;;22.30;63.00;;;;;;5000368;28;1341;-71
2023/07/24 09:59:36;;;;;;;;;;;22.30;63.60;;;;;;4984618;28;1584;-70
2023/07/24 10:02:01;;;;;;;;;;;22.30;62.50;;;;;;4986765;28;1374;-71
2023/07/24 10:04:27;;;;;;;;;;;22.40;62.50;;;;;;5001139;28;1293;-72
2023/07/24 10:06:52;;;;;;;;;;;22.40;62.40;;;;;;4986900;28;1911;-72
2023/07/24 10:09:21;;;;;;;;;;;22.40;61.80;;;;;;4998951;28;1502;-71
2023/07/24 10:11:46;;;;;;;;;;;22.40;61.70;;;;;;4998978;28;1381;-73
2023/07/24 10:14:12;;;;;;;;;;;22.40;61.70;;;;;;4999280;28;1188;-71
2023/07/24 10:16:37;;;;;;;;;;;22.40;61.80;;;;;;4994981;28;1159;-71
2023/07/24 10:19:12;;;;;;;;;;;22.40;61.90;;;;;;4984132;28;1258;-71
2023/07/24 10:21:37;;;;;;;;;;;22.40;62.00;;;;;;4999652;28;1506;-70
2023/07/24 10:24:03;;;;;;;;;;;22.40;62.20;;;;;;5001446;28;1416;-71
2023/07/24 10:26:28;;;;;;;;;;;22.40;62.50;;;;;;4985468;28;1898;-70
2023/07/24 10:28:54;;;;;;;;;;;22.40;62.50;;;;;;4984270;28;1476;-70
2023/07/24 10:31:20;;;;;;;;;;;22.50;62.00;;;;;;4997188;28;1377;-69
2023/07/24 10:33:46;;;;;;;;;;;22.50;61.90;;;;;;4996243;28;1221;-69
2023/07/24 10:36:13;;;;;;;;;;;22.50;60.80;;;;;;4998910;28;920;-69
2023/07/24 10:38:42;;;;;;;;;;;22.50;60.70;;;;;;4993558;28;1563;-69
2023/07/24 10:41:08;;;;;;;;;;;22.50;60.80;;;;;;4994267;28;1441;-68
2023/07/24 10:43:46;;;;;;;;;;;22.50;60.50;;;;;;4994586;28;865;-69
2023/07/24 10:46:12;;;;;;;;;;;22.50;60.30;;;;;;4997101;28;2345;-69
2023/07/24 10:48:37;;;;;;;;;;;22.50;59.90;;;;;;4996765;28;795;-68
2023/07/24 10:51:07;;;;;;;;;;;22.60;59.20;;;;;;4984209;28;1271;-68
2023/07/24 10:53:34;;;;;;;;;;;22.50;59.30;;;;;;5003193;28;842;-69
2023/07/24 10:55:59;;;;;;;;;;;22.50;59.10;;;;;;5006141;28;856;-69
2023/07/24 10:58:25;;;;;;;;;;;22.60;59.20;;;;;;5000932;28;799;-69
2023/07/24 11:00:51;;;;;;;;;;;22.60;59.40;;;;;;5003422;28;1200;-68
2023/07/24 11:03:16;;;;;;;;;;;22.60;59.20;;;;;;5000660;28;919;-69
2023/07/24 11:05:42;;;;;;;;;;;22.60;59.10;;;;;;5000771;28;1887;-68
2023/07/24 11:08:14;;;;;;;;;;;22.60;59.30;;;;;;4999669;28;864;-69
2023/07/24 11:10:49;;;;;;;;;;;22.60;59.00;;;;;;4986787;28;1280;-69
2023/07/24 11:13:15;;;;;;;;;;;22.60;59.30;;;;;;5002618;28;848;-68
2023/07/24 11:15:41;;;;;;;;;;;22.60;58.90;;;;;;5000952;28;1854;-68
2023/07/24 11:18:10;;;;;;;;;;;22.60;58.20;;;;;;5003567;28;1368;-68
2023/07/24 11:20:42;;;;;;;;;;;22.70;58.20;;;;;;5003710;28;1765;-68
2023/07/24 11:23:08;;;;;;;;;;;22.70;58.40;;;;;;4997457;28;1456;-68
2023/07/24 11:25:34;;;;;;;;;;;22.70;58.50;;;;;;5001483;28;1973;-68
2023/07/24 11:27:59;;;;;;;;;;;22.70;58.20;;;;;;4985380;28;1226;-68
2023/07/24 11:30:25;;;;;;;;;;;22.70;58.00;;;;;;4999319;28;1297;-68
2023/07/24 11:32:51;;;;;;;;;;;22.70;57.70;;;;;;5002622;28;1180;-68
2023/07/24 11:35:16;;;;;;;;;;;22.70;57.90;;;;;;4991358;28;880;-68
2023/07/24 11:37:42;;;;;;;;;;;22.70;58.10;;;;;;5001423;28;1586;-68
2023/07/24 11:40:13;;;;;;;;;;;22.70;58.20;;;;;;5003477;28;2249;-69
2023/07/24 11:42:39;;;;;;;;;;;22.70;58.50;;;;;;5008145;28;938;-69
2023/07/24 11:45:07;;;;;;;;;;;22.70;58.30;;;;;;5003126;28;1324;-69
2023/07/24 11:47:40;;;;;;;;;;;22.70;58.40;;;;;;5006105;28;1911;-68
2023/07/24 11:50:06;;;;;;;;;;;22.70;58.50;;;;;;5014987;28;1348;-68
2023/07/24 11:52:39;;;;;;;;;;;22.80;58.40;;;;;;4996225;28;945;-69
2023/07/24 11:55:04;;;;;;;;;;;22.70;57.90;;;;;;5003673;28;876;-68
2023/07/24 11:57:30;;;;;;;;;;;22.80;57.70;;;;;;4999046;28;859;-69
2023/07/24 11:59:57;;;;;;;;;;;22.70;57.40;;;;;;4995219;28;892;-69
2023/07/24 12:02:27;;;;;;;;;;;22.80;57.10;;;;;;4993969;28;1216;-68
2023/07/24 12:04:59;;;;;;;;;;;22.80;56.90;;;;;;4995246;28;907;-69
2023/07/24 12:07:34;;;;;;;;;;;22.80;56.80;;;;;;4995111;28;1891;-69
2023/07/24 12:10:03;;;;;;;;;;;22.80;56.60;;;;;;4996432;28;888;-69
2023/07/24 12:12:44;;;;;;;;;;;22.80;56.70;;;;;;4986331;28;802;-68
2023/07/24 12:15:10;;;;;;;;;;;22.80;56.90;;;;;;4992079;28;927;-68
2023/07/24 12:17:35;;;;;;;;;;;22.90;57.00;;;;;;4993966;28;855;-69
2023/07/24 12:20:02;;;;;;;;;;;22.80;56.00;;;;;;4995000;28;830;-69
2023/07/24 12:22:27;;;;;;;;;;;22.90;56.40;;;;;;5006970;28;864;-69
2023/07/24 12:24:53;;;;;;;;;;;22.90;56.30;;;;;;4996912;28;1022;-68
2023/07/24 12:27:18;;;;;;;;;;;22.90;56.20;;;;;;5006959;28;1894;-69
2023/07/24 12:29:44;;;;;;;;;;;22.90;55.80;;;;;;4993718;28;924;-69
2023/07/24 12:32:09;;;;;;;;;;;22.90;55.90;;;;;;4997972;28;2035;-69
2023/07/24 12:34:34;;;;;;;;;;;22.90;56.00;;;;;;4997863;28;930;-69
2023/07/24 12:37:00;;;;;;;;;;;22.90;56.10;;;;;;5002322;28;804;-68
2023/07/24 12:39:25;;;;;;;;;;;22.90;56.10;;;;;;5000508;28;1456;-69
2023/07/24 12:41:51;;;;;;;;;;;22.90;56.20;;;;;;5003823;28;1287;-69
2023/07/24 12:44:16;;;;;;;;;;;22.90;56.40;;;;;;4997435;28;847;-69
2023/07/24 12:46:42;;;;;;;;;;;22.90;56.70;;;;;;5003286;28;1914;-68
2023/07/24 12:49:07;;;;;;;;;;;22.80;57.40;;;;;;5000850;28;864;-68
2023/07/24 12:51:33;;;;;;;;;;;22.80;58.00;;;;;;5003034;28;1264;-68
2023/07/24 12:53:58;;;;;;;;;;;22.80;58.20;;;;;;4998607;28;1010;-68
2023/07/24 12:56:24;;;;;;;;;;;22.70;58.30;;;;;;4985022;28;1610;-69
2023/07/24 12:58:49;;;;;;;;;;;22.70;58.60;;;;;;5004564;28;836;-68
2023/07/24 13:01:14;;;;;;;;;;;22.60;58.60;;;;;;4998760;28;1255;-68
2023/07/24 13:03:40;;;;;;;;;;;22.60;58.80;;;;;;5002275;28;786;-68
2023/07/24 13:06:05;;;;;;;;;;;22.50;58.90;;;;;;5004518;28;1903;-68
2023/07/24 13:08:31;;;;;;;;;;;22.50;59.10;;;;;;4996239;28;884;-68
2023/07/24 13:10:56;;;;;;;;;;;22.50;59.30;;;;;;4998642;28;1283;-67
2023/07/24 13:13:22;;;;;;;;;;;22.40;59.40;;;;;;5003269;28;876;-68
2023/07/24 13:15:48;;;;;;;;;;;22.40;59.60;;;;;;4984809;28;857;-67
2023/07/24 13:18:16;;;;;;;;;;;22.40;59.70;;;;;;4980806;28;855;-69
2023/07/24 13:20:41;;;;;;;;;;;22.40;59.80;;;;;;4997194;28;1208;-68
2023/07/24 13:23:07;;;;;;;;;;;22.30;59.90;;;;;;4999412;28;841;-68
2023/07/24 13:25:32;;;;;;;;;;;22.30;60.10;;;;;;5001232;28;1898;-68
2023/07/24 13:27:58;;;;;;;;;;;22.30;60.20;;;;;;4999124;28;1288;-67
2023/07/24 13:30:23;;;;;;;;;;;22.30;60.30;;;;;;5000141;28;1289;-68
2023/07/24 13:32:49;;;;;;;;;;;22.30;60.40;;;;;;4997014;28;797;-68
2023/07/24 13:35:15;;;;;;;;;;;22.30;60.50;;;;;;4999908;28;1062;-68
2023/07/24 13:37:40;;;;;;;;;;;22.20;60.50;;;;;;4999485;28;840;-69
2023/07/24 13:40:06;;;;;;;;;;;22.20;60.50;;;;;;4999026;28;1923;-68
2023/07/24 13:42:32;;;;;;;;;;;22.20;60.70;;;;;;5000968;28;1318;-69
2023/07/24 13:44:57;;;;;;;;;;;22.20;60.80;;;;;;5001535;28;1256;-68
2023/07/24 13:47:23;;;;;;;;;;;22.20;60.90;;;;;;5000796;28;1898;-68
2023/07/24 13:49:48;;;;;;;;;;;22.20;60.90;;;;;;5001686;28;799;-68
2023/07/24 13:52:13;;;;;;;;;;;22.20;61.70;;;;;;4997251;28;1388;-68
2023/07/24 13:54:39;;;;;;;;;;;22.20;61.00;;;;;;4999728;28;841;-70
2023/07/24 13:57:07;;;;;;;;;;;22.20;61.10;;;;;;4998032;28;967;-68
2023/07/24 13:59:32;;;;;;;;;;;22.10;61.10;;;;;;4996516;28;842;-68
2023/07/24 14:01:58;;;;;;;;;;;22.10;61.20;;;;;;4998691;28;1329;-70
2023/07/24 14:04:23;;;;;;;;;;;22.10;61.20;;;;;;5005433;28;849;-70
2023/07/24 14:06:49;;;;;;;;;;;22.10;61.20;;;;;;5000868;28;1961;-70
2023/07/24 14:09:14;;;;;;;;;;;22.10;61.40;;;;;;4996061;28;900;-67
2023/07/24 14:11:39;;;;;;;;;;;22.10;61.30;;;;;;4996414;28;1359;-68
2023/07/24 14:14:05;;;;;;;;;;;22.10;61.40;;;;;;4998151;28;875;-67
2023/07/24 14:16:30;;;;;;;;;;;22.10;61.50;;;;;;4999198;28;874;-68
2023/07/24 14:18:56;;;;;;;;;;;22.10;61.50;;;;;;4997711;28;1369;-68
2023/07/24 14:21:21;;;;;;;;;;;22.10;61.50;;;;;;4996748;28;1244;-68
2023/07/24 14:23:47;;;;;;;;;;;22.00;61.50;;;;;;4994907;28;1176;-68
2023/07/24 14:26:12;;;;;;;;;;;22.10;61.60;;;;;;4999673;28;1894;-70
2023/07/24 14:28:38;;;;;;;;;;;22.10;61.70;;;;;;5000686;28;1270;-69
2023/07/24 14:31:04;;;;;;;;;;;22.10;61.80;;;;;;5008135;28;1316;-69